createdAt,value
2022-11-14T00:03:10.495Z,58.40
2022-11-14T00:08:15.767Z,58.40
2022-11-14T00:13:19.046Z,58.30
2022-11-14T00:18:23.304Z,58.30
2022-11-14T00:23:25.998Z,58.10
2022-11-14T00:28:28.916Z,58.20
2022-11-14T00:33:33.128Z,58.20
2022-11-14T00:38:45.355Z,58.00
2022-11-14T00:43:48.193Z,58.10
2022-11-14T00:48:52.228Z,58.40
2022-11-14T00:53:54.972Z,58.20
2022-11-14T00:58:57.602Z,58.00
2022-11-14T01:04:02.732Z,58.30
2022-11-14T01:09:05.402Z,57.90
2022-11-14T01:14:08.074Z,58.10
2022-11-14T01:19:12.088Z,58.00
2022-11-14T01:24:14.772Z,58.30
2022-11-14T01:29:17.417Z,58.10
2022-11-14T01:34:21.414Z,58.00
2022-11-14T01:39:24.102Z,57.90
2022-11-14T01:44:47.474Z,57.90
2022-11-14T01:50:05.082Z,57.90
2022-11-14T01:55:09.593Z,58.00
2022-11-14T02:00:13.325Z,57.80
2022-11-14T02:05:18.436Z,57.80
2022-11-14T02:10:22.001Z,58.10
2022-11-14T02:15:26.143Z,57.80
2022-11-14T02:20:32.959Z,58.10
2022-11-14T02:25:35.698Z,57.90
2022-11-14T02:30:38.497Z,57.90
2022-11-14T02:35:42.772Z,57.80
2022-11-14T02:40:45.433Z,58.00
2022-11-14T02:45:48.052Z,57.70
2022-11-14T02:50:52.020Z,58.00
2022-11-14T02:55:54.678Z,58.00
2022-11-14T03:01:19.641Z,58.10
2022-11-14T03:06:21.600Z,58.00
2022-11-14T03:11:24.220Z,57.90
2022-11-14T03:16:27.038Z,58.10
2022-11-14T03:21:31.239Z,58.10
2022-11-14T03:26:33.948Z,57.90
2022-11-14T03:31:36.565Z,58.10
2022-11-14T03:36:40.560Z,58.00
2022-11-14T03:41:43.180Z,57.80
2022-11-14T03:46:47.550Z,57.80
2022-11-14T03:51:51.636Z,58.00
2022-11-14T03:56:54.449Z,57.90
2022-11-14T04:01:57.133Z,58.00
2022-11-14T04:07:01.661Z,57.80
2022-11-14T04:12:04.405Z,57.80
2022-11-14T04:17:07.085Z,57.60
2022-11-14T04:22:11.982Z,57.80
2022-11-14T04:27:14.635Z,58.00
2022-11-14T04:32:17.357Z,57.90
2022-11-14T04:37:21.321Z,57.80
2022-11-14T04:42:24.345Z,57.90
2022-11-14T04:47:26.963Z,57.80
2022-11-14T04:52:30.953Z,58.00
2022-11-14T04:57:33.649Z,57.70
2022-11-14T05:02:37.630Z,57.80
2022-11-14T05:07:41.640Z,57.90
2022-11-14T05:12:44.286Z,57.60
2022-11-14T05:17:46.927Z,57.80
2022-11-14T05:22:53.253Z,57.50
2022-11-14T05:27:55.905Z,57.60
2022-11-14T05:32:58.697Z,57.60
2022-11-14T05:38:03.709Z,57.80
2022-11-14T05:43:06.936Z,57.70
2022-11-14T05:48:10.392Z,57.60
2022-11-14T05:53:14.400Z,57.40
2022-11-14T05:58:17.014Z,57.30
2022-11-14T06:03:19.749Z,57.50
2022-11-14T06:08:23.732Z,57.50
2022-11-14T06:13:26.365Z,57.50
2022-11-14T06:18:29.420Z,57.60
2022-11-14T06:23:33.973Z,57.50
2022-11-14T06:28:36.634Z,57.50
2022-11-14T06:33:39.259Z,57.40
2022-11-14T06:38:43.630Z,57.60
2022-11-14T06:43:47.231Z,57.40
2022-11-14T06:48:50.622Z,57.20
2022-11-14T06:53:54.604Z,57.40
2022-11-14T06:58:57.233Z,57.40
2022-11-14T07:04:00.904Z,57.20
2022-11-14T07:09:05.728Z,57.40
2022-11-14T07:14:08.429Z,57.30
2022-11-14T07:19:11.129Z,57.20
2022-11-14T07:24:15.152Z,57.60
2022-11-14T07:29:17.796Z,58.00
2022-11-14T07:34:20.454Z,58.40
2022-11-14T07:39:24.443Z,58.40
2022-11-14T07:44:27.071Z,58.00
2022-11-14T07:49:29.716Z,58.00
2022-11-14T07:54:33.842Z,57.40
2022-11-14T07:59:37.005Z,56.90
2022-11-14T08:04:39.649Z,56.50
2022-11-14T08:09:46.574Z,56.60
2022-11-14T08:14:49.274Z,56.60
2022-11-14T08:19:51.957Z,56.60
2022-11-14T08:24:56.387Z,56.60
2022-11-14T08:29:59.044Z,56.90
2022-11-14T08:35:03.518Z,56.50
2022-11-14T08:40:08.158Z,56.40
2022-11-14T08:45:11.073Z,56.40
2022-11-14T08:50:13.728Z,56.50
2022-11-14T08:55:17.847Z,55.70
2022-11-14T09:00:23.349Z,55.30
2022-11-14T09:05:26.425Z,54.80
2022-11-14T09:10:30.525Z,54.70
2022-11-14T09:15:33.965Z,54.30
2022-11-14T09:20:44.377Z,54.40
2022-11-14T09:25:48.521Z,54.00
2022-11-14T09:30:51.491Z,54.00
2022-11-14T09:35:57.316Z,55.10
2022-11-14T09:41:05.915Z,55.10
2022-11-14T09:46:16.799Z,54.60
2022-11-14T09:51:21.236Z,55.80
2022-11-14T09:56:26.559Z,54.50
2022-11-14T10:01:33.508Z,54.20
2022-11-14T10:06:41.323Z,54.50
2022-11-14T10:11:47.631Z,54.00
2022-11-14T10:16:55.018Z,54.30
2022-11-14T10:22:05.382Z,54.20
2022-11-14T10:27:12.792Z,54.20
2022-11-14T10:32:24.783Z,54.00
2022-11-14T10:37:28.676Z,54.10
2022-11-14T10:42:35.600Z,54.50
2022-11-14T10:47:41.173Z,54.20
2022-11-14T10:52:45.382Z,54.30
2022-11-14T10:57:49.559Z,54.10
2022-11-14T11:02:53.057Z,54.20
2022-11-14T11:08:41.551Z,53.80
2022-11-14T11:13:49.502Z,54.00
2022-11-14T11:18:52.252Z,53.90
2022-11-14T11:23:55.482Z,53.40
2022-11-14T11:29:16.004Z,53.60
2022-11-14T11:34:20.982Z,53.40
2022-11-14T11:39:24.861Z,53.40
2022-11-14T11:44:34.863Z,53.30
2022-11-14T11:49:41.540Z,53.40
2022-11-14T11:54:49.829Z,53.40
2022-11-14T11:59:54.950Z,53.60
2022-11-14T12:04:58.605Z,53.80
2022-11-14T12:10:10.220Z,54.40
2022-11-14T12:15:18.963Z,54.00
2022-11-14T12:20:30.128Z,54.00
2022-11-14T12:25:38.540Z,53.80
2022-11-14T12:30:46.611Z,53.80
2022-11-14T12:35:51.081Z,54.40
2022-11-14T12:40:56.072Z,54.20
2022-11-14T12:46:03.065Z,53.70
2022-11-14T12:51:07.046Z,53.60
2022-11-14T12:56:18.623Z,53.80
2022-11-14T13:01:38.674Z,54.10
2022-11-14T13:06:48.402Z,53.60
2022-11-14T13:12:08.961Z,54.10
2022-11-14T13:17:41.436Z,53.50
2022-11-14T13:22:55.850Z,53.70
2022-11-14T13:28:24.788Z,54.20
2022-11-14T13:33:42.740Z,54.20
2022-11-14T13:38:57.753Z,53.20
2022-11-14T13:44:07.818Z,53.20
2022-11-14T13:49:28.873Z,52.90
2022-11-14T13:54:32.552Z,53.10
2022-11-14T13:59:50.512Z,53.30
2022-11-14T14:05:10.518Z,53.30
2022-11-14T14:10:23.953Z,53.30
2022-11-14T14:15:28.756Z,54.10
2022-11-14T14:20:37.285Z,54.70
2022-11-14T14:25:45.172Z,54.10
2022-11-14T14:31:04.427Z,54.10
2022-11-14T14:36:18.170Z,54.00
2022-11-14T14:41:21.023Z,53.90
2022-11-14T14:46:28.849Z,53.70
2022-11-14T14:51:35.969Z,53.80
2022-11-14T14:56:38.660Z,53.80
2022-11-14T15:01:41.431Z,53.70
2022-11-14T15:06:47.327Z,53.60
2022-11-14T15:11:51.664Z,53.60
2022-11-14T15:16:55.727Z,54.20
2022-11-14T15:22:04.900Z,54.90
2022-11-14T15:27:12.567Z,54.40
2022-11-14T15:32:19.400Z,54.20
2022-11-14T15:37:24.058Z,54.20
2022-11-14T15:42:28.643Z,54.20
2022-11-14T15:47:36.032Z,54.20
2022-11-14T15:52:41.381Z,53.80
2022-11-14T15:57:51.679Z,53.50
2022-11-14T16:02:58.892Z,53.50
2022-11-14T16:08:15.295Z,53.40
2022-11-14T16:13:18.162Z,53.20
2022-11-14T16:18:20.888Z,53.20
2022-11-14T16:23:24.943Z,52.20
2022-11-14T16:28:29.731Z,52.80
2022-11-14T16:33:37.047Z,53.10
2022-11-14T16:38:41.070Z,53.10
2022-11-14T16:43:43.763Z,53.30
2022-11-14T16:48:46.475Z,53.40
2022-11-14T16:53:55.276Z,53.20
2022-11-14T16:58:59.184Z,53.30
2022-11-14T17:04:11.619Z,53.60
2022-11-14T17:09:15.772Z,53.70
2022-11-14T17:14:18.566Z,53.40
2022-11-14T17:19:21.229Z,53.40
2022-11-14T17:24:31.025Z,53.60
2022-11-14T17:29:34.107Z,53.40
2022-11-14T17:34:36.727Z,53.20
2022-11-14T17:39:40.717Z,53.60
2022-11-14T17:44:43.376Z,53.90
2022-11-14T17:49:46.035Z,53.80
2022-11-14T17:54:50.088Z,53.80
2022-11-14T17:59:52.973Z,53.90
2022-11-14T18:04:55.675Z,54.20
2022-11-14T18:09:59.693Z,54.10
2022-11-14T18:15:02.463Z,54.30
2022-11-14T18:20:05.858Z,54.40
2022-11-14T18:25:10.205Z,54.30
2022-11-14T18:30:39.857Z,54.30
2022-11-14T18:35:35.703Z,54.50
2022-11-14T18:40:39.686Z,54.60
2022-11-14T18:45:42.355Z,54.80
2022-11-14T18:50:45.104Z,54.60
2022-11-14T18:55:53.025Z,54.70
2022-11-14T19:00:55.697Z,54.60
2022-11-14T19:06:03.975Z,54.80
2022-11-14T19:11:29.860Z,54.70
2022-11-14T19:16:43.321Z,54.80
2022-11-14T19:21:48.746Z,54.80
2022-11-14T19:26:52.743Z,54.70
2022-11-14T19:31:56.221Z,55.00
2022-11-14T19:37:00.595Z,55.20
2022-11-14T19:42:05.168Z,55.20
2022-11-14T19:47:07.783Z,55.10
2022-11-14T19:52:13.945Z,55.10
2022-11-14T19:57:18.164Z,54.90
2022-11-14T20:02:21.606Z,55.00
2022-11-14T20:07:24.550Z,55.10
2022-11-14T20:12:28.744Z,55.10
2022-11-14T20:17:33.073Z,55.20
2022-11-14T20:22:47.864Z,55.20
2022-11-14T20:27:52.114Z,55.20
2022-11-14T20:32:54.806Z,55.10
2022-11-14T20:38:03.231Z,55.30
2022-11-14T20:43:09.189Z,55.50
2022-11-14T20:48:11.965Z,55.30
2022-11-14T20:53:25.580Z,55.40
2022-11-14T20:58:29.669Z,55.40
2022-11-14T21:03:32.650Z,55.50
2022-11-14T21:08:36.309Z,55.50
2022-11-14T21:13:59.876Z,55.50
2022-11-14T21:19:03.097Z,55.40
2022-11-14T21:24:06.097Z,55.70
2022-11-14T21:29:13.075Z,55.30
2022-11-14T21:34:19.078Z,55.50
2022-11-14T21:39:21.957Z,55.60
2022-11-14T21:44:25.928Z,55.70
2022-11-14T21:49:39.657Z,55.70
2022-11-14T21:54:42.340Z,55.60
2022-11-14T21:59:46.325Z,55.70
2022-11-14T22:04:48.955Z,55.80
2022-11-14T22:09:51.619Z,55.80
2022-11-14T22:14:55.585Z,55.70
2022-11-14T22:19:58.422Z,55.80
2022-11-14T22:25:01.101Z,56.00
2022-11-14T22:30:05.585Z,55.90
2022-11-14T22:35:08.438Z,56.00
2022-11-14T22:40:11.713Z,56.00
2022-11-14T22:45:15.976Z,56.00
2022-11-14T22:50:18.753Z,55.90
2022-11-14T22:55:21.362Z,56.10
2022-11-14T23:00:27.237Z,56.10
2022-11-14T23:05:29.905Z,56.00
2022-11-14T23:10:34.276Z,56.30
2022-11-14T23:15:38.429Z,56.10
2022-11-14T23:20:41.076Z,56.00
2022-11-14T23:25:45.228Z,56.10
2022-11-14T23:30:49.465Z,56.20
2022-11-14T23:35:52.171Z,56.30
2022-11-14T23:40:55.331Z,56.10
2022-11-14T23:45:59.536Z,56.00
2022-11-14T23:51:02.603Z,56.20
2022-11-14T23:56:06.673Z,56.30
